Time;durP1;ratioP1;P1;durP2;ratioP2;P2;SDS_P1;SDS_P2;PMS_P1;PMS_P2;Temp;Humidity;BMP_temperature;BMP_pressure;BME280_temperature;BME280_humidity;BME280_pressure;Samples;Min_cycle;Max_cycle;Signal;HPM_P1;HPM_P2
2022/08/30 00:03:26;;;;;;;5.50;5.20;;;;;;;17.82;71.27;101634.16;6067811;23;20021;-73
2022/08/30 00:05:53;;;;;;;5.70;5.40;;;;;;;17.62;70.59;101596.53;6043349;23;20444;-74
2022/08/30 00:08:21;;;;;;;5.70;5.40;;;;;;;17.33;70.96;101553.38;6060562;23;20042;-74
2022/08/30 00:10:50;;;;;;;5.82;5.53;;;;;;;17.74;71.40;101626.72;6021474;23;20031;-73
2022/08/30 00:13:17;;;;;;;6.18;5.78;;;;;;;17.82;72.20;101642.09;6062086;23;20030;-74
2022/08/30 00:15:44;;;;;;;6.57;6.20;;;;;;;17.77;72.92;101650.41;6038855;23;20447;-73
2022/08/30 00:18:11;;;;;;;5.68;5.28;;;;;;;16.74;72.57;101514.78;6066200;23;20589;-74
2022/08/30 00:20:38;;;;;;;6.45;6.05;;;;;;;17.52;73.19;101614.03;6053145;23;20014;-74
2022/08/30 00:23:04;;;;;;;6.07;5.60;;;;;;;17.75;72.81;101641.69;6050037;23;20782;-74
2022/08/30 00:25:31;;;;;;;6.35;5.95;;;;;;;17.45;72.67;101595.00;6017239;23;20055;-74
2022/08/30 00:27:57;;;;;;;6.05;5.70;;;;;;;16.99;73.12;101533.56;6074370;23;20483;-74
2022/08/30 00:30:24;;;;;;;7.18;6.68;;;;;;;17.24;72.79;101556.63;6051017;23;20089;-74
2022/08/30 00:32:51;;;;;;;5.70;5.40;;;;;;;17.77;72.71;101650.41;6072026;23;20025;-74
2022/08/30 00:35:19;;;;;;;7.05;6.50;;;;;;;17.72;72.81;101647.19;6044485;23;20452;-74
2022/08/30 00:37:47;;;;;;;6.47;5.68;;;;;;;17.60;73.17;101629.44;6072353;23;20037;-74
2022/08/30 00:40:16;;;;;;;6.07;5.65;;;;;;;17.72;73.43;101655.16;6037972;23;20717;-74
2022/08/30 00:42:43;;;;;;;5.63;5.32;;;;;;;17.69;74.09;101656.22;6078918;23;20029;-74
2022/08/30 00:45:21;;;;;;;;;;;;;;;17.64;73.81;101650.38;6004319;23;20081;-74
2022/08/30 00:47:48;;;;;;;5.87;5.47;;;;;;;17.34;73.91;101613.47;6077411;23;20279;-74
2022/08/30 00:50:19;;;;;;;6.03;5.65;;;;;;;17.51;74.28;101652.97;6051169;23;20090;-73
2022/08/30 00:52:47;;;;;;;5.80;5.50;;;;;;;17.40;75.57;101652.84;6073800;23;20006;-74
2022/08/30 00:55:16;;;;;;;6.25;5.85;;;;;;;17.34;75.61;101654.09;6050240;23;20021;-74
2022/08/30 00:57:45;;;;;;;5.70;5.40;;;;;;;17.27;75.92;101659.91;6077058;23;20630;-74
2022/08/30 01:00:14;;;;;;;5.28;5.03;;;;;;;17.20;76.24;101650.63;6056376;23;20086;-73
2022/08/30 01:02:42;;;;;;;6.88;5.97;;;;;;;16.90;77.28;101627.81;6085903;23;20697;-73
2022/08/30 01:05:11;;;;;;;5.95;5.55;;;;;;;16.87;78.27;101643.91;6058042;23;20022;-74
2022/08/30 01:07:42;;;;;;;6.22;5.63;;;;;;;16.65;79.14;101631.97;6051300;23;20034;-74
2022/08/30 01:10:10;;;;;;;5.85;5.55;;;;;;;16.87;79.13;101662.47;6033690;23;20089;-74
2022/08/30 01:12:38;;;;;;;10.23;5.20;;;;;;;16.83;78.93;101672.41;6082332;23;20604;-74
2022/08/30 01:15:06;;;;;;;5.80;5.40;;;;;;;16.59;80.60;101631.50;6043599;23;20076;-74
2022/08/30 01:17:33;;;;;;;5.88;5.45;;;;;;;16.50;80.52;101619.69;6066835;23;20010;-74
2022/08/30 01:20:19;;;;;;;5.63;5.22;;;;;;;16.64;80.03;101656.78;6055553;23;20017;-74
2022/08/30 01:22:48;;;;;;;6.72;6.13;;;;;;;16.79;80.91;101670.03;6086937;23;20088;-73
2022/08/30 01:25:23;;;;;;;6.45;6.15;;;;;;;16.75;81.06;101669.34;6031016;23;20084;-74
2022/08/30 01:27:57;;;;;;;6.03;5.65;;;;;;;16.59;80.19;101647.41;6078193;23;20053;-74
2022/08/30 01:30:24;;;;;;;7.10;6.65;;;;;;;16.58;81.45;101649.22;6034843;23;20048;-73
2022/08/30 01:32:57;;;;;;;5.65;5.35;;;;;;;16.64;82.13;101667.38;6022221;23;20019;-74
2022/08/30 01:35:24;;;;;;;7.22;6.75;;;;;;;15.94;82.86;101548.09;6082146;23;20658;-74
2022/08/30 01:37:51;;;;;;;9.32;5.25;;;;;;;16.21;83.03;101587.91;6030089;23;20620;-73
2022/08/30 01:40:18;;;;;;;7.50;7.00;;;;;;;16.64;83.31;101661.25;6052403;23;20121;-74
2022/08/30 01:42:45;;;;;;;6.72;6.22;;;;;;;16.66;83.53;101669.94;6056556;23;20578;-73
2022/08/30 01:45:12;;;;;;;5.82;5.53;;;;;;;16.66;83.06;101670.78;6083334;23;20639;-74
2022/08/30 01:47:39;;;;;;;5.88;5.53;;;;;;;16.68;82.58;101674.19;6046086;23;20080;-74
2022/08/30 01:50:07;;;;;;;5.97;5.53;;;;;;;16.49;82.72;101631.22;6032926;23;20060;-74
2022/08/30 01:52:34;;;;;;;6.07;5.68;;;;;;;16.35;84.08;101609.09;6079600;23;20069;-73
2022/08/30 01:55:01;;;;;;;5.85;5.50;;;;;;;16.78;83.66;101663.88;6058746;23;20022;-74
2022/08/30 01:57:27;;;;;;;7.18;6.68;;;;;;;16.79;83.49;101691.22;6019741;23;20025;-74
2022/08/30 01:59:54;;;;;;;7.55;5.95;;;;;;;16.81;83.72;101678.72;6080133;23;20018;-74
2022/08/30 02:02:24;;;;;;;6.97;6.57;;;;;;;16.59;83.12;101627.06;6046056;23;20020;-73
2022/08/30 02:04:52;;;;;;;6.25;5.70;;;;;;;16.91;84.25;101670.13;6090090;23;20026;-74
2022/08/30 02:07:20;;;;;;;7.50;7.00;;;;;;;16.98;84.20;101662.66;6036812;23;20405;-73
2022/08/30 02:09:47;;;;;;;5.90;5.50;;;;;;;16.86;84.07;101639.56;6023934;23;20628;-74
2022/08/30 02:12:14;;;;;;;7.68;6.22;;;;;;;16.69;84.31;101612.28;6081500;23;20034;-73
2022/08/30 02:14:40;;;;;;;5.63;5.32;;;;;;;16.62;84.38;101597.72;6025683;23;20038;-73
2022/08/30 02:17:09;;;;;;;8.15;5.68;;;;;;;16.67;83.89;101598.25;6077701;23;20455;-74
2022/08/30 02:19:36;;;;;;;6.40;6.00;;;;;;;16.35;84.93;101561.41;6056309;23;20024;-74
2022/08/30 02:22:03;;;;;;;5.97;5.57;;;;;;;16.33;84.95;101555.34;6026274;23;20027;-74
2022/08/30 02:24:29;;;;;;;7.13;6.53;;;;;;;16.93;85.51;101657.63;6082111;23;20018;-73
2022/08/30 02:26:56;;;;;;;6.03;5.63;;;;;;;16.93;85.68;101656.78;6025402;23;20441;-74
2022/08/30 02:29:23;;;;;;;7.00;6.60;;;;;;;16.94;86.11;101650.53;6081292;23;20033;-74
2022/08/30 02:31:50;;;;;;;5.82;5.47;;;;;;;16.62;86.75;101591.56;6054874;23;20023;-74
2022/08/30 02:34:17;;;;;;;7.03;6.63;;;;;;;16.99;86.42;101647.56;6067853;23;20033;-74
2022/08/30 02:36:44;;;;;;;8.32;5.93;;;;;;;16.96;86.51;101632.72;6039400;23;20017;-74
2022/08/30 02:39:12;;;;;;;5.93;5.53;;;;;;;17.08;86.40;101645.19;6049652;23;20029;-74
2022/08/30 02:41:40;;;;;;;6.15;5.70;;;;;;;17.12;87.03;101657.31;6031797;23;20798;-74
2022/08/30 02:44:08;;;;;;;6.60;5.97;;;;;;;17.07;86.35;101632.88;6058426;23;20017;-74
2022/08/30 02:46:35;;;;;;;6.40;5.93;;;;;;;17.14;86.51;101641.28;6052023;23;20036;-74
2022/08/30 02:49:03;;;;;;;5.50;5.20;;;;;;;17.16;86.25;101631.44;6086369;23;20793;-74
2022/08/30 02:51:49;;;;;;;5.38;5.10;;;;;;;17.11;87.24;101637.03;6056009;23;20033;-74
2022/08/30 02:54:18;;;;;;;6.07;5.68;;;;;;;16.98;87.54;101611.38;6081064;23;20620;-74
2022/08/30 02:56:46;;;;;;;5.85;5.45;;;;;;;16.56;87.85;101542.47;6027311;23;20057;-74
2022/08/30 02:59:15;;;;;;;6.18;5.78;;;;;;;16.50;88.25;101538.41;6074362;23;20128;-74
2022/08/30 03:01:41;;;;;;;6.57;5.97;;;;;;;16.78;88.29;101579.03;6030631;23;20023;-74
2022/08/30 03:04:08;;;;;;;6.05;5.65;;;;;;;16.75;88.97;101579.22;6056550;23;20033;-74
2022/08/30 03:06:35;;;;;;;6.55;6.15;;;;;;;17.04;89.41;101613.63;6032781;23;20787;-74
2022/08/30 03:09:03;;;;;;;5.93;5.53;;;;;;;17.04;89.48;101627.78;6004719;23;20568;-74
2022/08/30 03:11:29;;;;;;;6.82;6.50;;;;;;;15.97;89.11;101438.50;6057355;23;20653;-74
2022/08/30 03:13:55;;;;;;;5.95;5.60;;;;;;;16.79;89.50;101564.81;6006436;23;20406;-74
2022/08/30 03:16:22;;;;;;;6.78;6.38;;;;;;;17.03;89.35;101604.00;6053659;23;20018;-74
2022/08/30 03:18:48;;;;;;;5.90;5.50;;;;;;;17.18;88.96;101608.31;6036775;23;20094;-74
2022/08/30 03:21:15;;;;;;;6.00;5.60;;;;;;;16.91;89.41;101571.16;6059878;23;20105;-74
2022/08/30 03:23:42;;;;;;;5.88;5.47;;;;;;;17.19;89.44;101610.00;6007468;23;20022;-74
2022/08/30 03:26:12;;;;;;;6.03;5.53;;;;;;;17.17;89.05;101611.06;6057550;23;20049;-74
2022/08/30 03:28:39;;;;;;;6.00;5.60;;;;;;;17.02;89.24;101594.31;6032910;23;20030;-74
2022/08/30 03:31:07;;;;;;;6.22;5.82;;;;;;;17.16;89.43;101612.88;6034792;23;20018;-74
2022/08/30 03:33:35;;;;;;;6.30;5.90;;;;;;;17.00;89.37;101582.97;6021600;23;20031;-74
2022/08/30 03:36:01;;;;;;;5.72;5.43;;;;;;;16.90;89.75;101567.69;6034646;23;20492;-74
2022/08/30 03:38:28;;;;;;;6.95;6.55;;;;;;;16.65;89.47;101517.16;6020735;23;20674;-74
2022/08/30 03:40:54;;;;;;;6.15;5.55;;;;;;;16.84;89.75;101546.00;5996515;23;20430;-74
2022/08/30 03:43:22;;;;;;;6.68;6.10;;;;;;;17.14;90.16;101596.22;6016245;23;20128;-74
2022/08/30 03:45:49;;;;;;;5.53;5.22;;;;;;;17.07;90.17;101601.03;6029078;23;20094;-74
2022/08/30 03:48:15;;;;;;;7.68;7.28;;;;;;;16.65;90.67;101538.38;6017430;23;20038;-74
2022/08/30 03:50:42;;;;;;;6.05;5.75;;;;;;;16.93;90.83;101603.75;6034187;23;20030;-74
2022/08/30 03:53:08;;;;;;;9.15;5.75;;;;;;;16.15;91.86;101488.50;6058190;23;20027;-74
2022/08/30 03:55:35;;;;;;;5.82;5.53;;;;;;;16.74;92.00;101599.59;6006021;23;20023;-74
2022/08/30 03:58:01;;;;;;;6.03;5.50;;;;;;;16.73;92.31;101602.34;6057430;23;20020;-74
2022/08/30 04:00:29;;;;;;;8.15;7.38;;;;;;;16.22;93.36;101533.16;6037763;23;20018;-75
2022/08/30 04:02:55;;;;;;;5.85;5.55;;;;;;;16.62;93.89;101596.84;6050533;23;20026;-74
2022/08/30 04:05:22;;;;;;;7.00;6.47;;;;;;;16.05;93.92;101516.50;6005837;23;20015;-74
2022/08/30 04:07:48;;;;;;;6.60;5.85;;;;;;;16.57;94.06;101601.59;6055426;23;20025;-74
2022/08/30 04:10:15;;;;;;;6.28;5.95;;;;;;;16.52;94.78;101597.44;6015434;23;20029;-74
2022/08/30 04:12:41;;;;;;;6.10;5.60;;;;;;;15.96;95.61;101517.09;6029253;23;20317;-74
2022/08/30 04:15:16;;;;;;;6.45;5.63;;;;;;;16.41;96.36;101602.56;6013090;23;20031;-74
2022/08/30 04:17:43;;;;;;;5.80;5.43;;;;;;;16.13;96.22;101569.00;6040977;23;20018;-74
2022/08/30 04:20:10;;;;;;;5.93;5.40;;;;;;;16.04;96.61;101570.41;6007050;23;20011;-75
2022/08/30 04:22:36;;;;;;;6.20;5.60;;;;;;;15.89;96.75;101547.53;6053884;23;21093;-75
2022/08/30 04:25:04;;;;;;;5.72;5.43;;;;;;;16.06;97.05;101570.34;6038931;23;20724;-74
2022/08/30 04:27:31;;;;;;;7.00;6.32;;;;;;;15.95;97.23;101558.56;6050234;23;20026;-74
2022/08/30 04:29:58;;;;;;;6.03;5.63;;;;;;;16.30;96.95;101627.06;6038973;23;20088;-74
2022/08/30 04:32:25;;;;;;;6.85;6.38;;;;;;;15.82;97.06;101543.56;6051881;23;20010;-74
2022/08/30 04:34:56;;;;;;;5.80;5.40;;;;;;;16.21;96.90;101610.91;6017304;23;20085;-74
2022/08/30 04:37:23;;;;;;;6.65;6.25;;;;;;;15.35;96.55;101474.00;6056731;23;20042;-74
2022/08/30 04:39:53;;;;;;;5.88;5.38;;;;;;;16.16;95.84;101624.44;6009464;23;20027;-73
2022/08/30 04:42:20;;;;;;;7.03;6.47;;;;;;;16.27;96.34;101631.72;5980970;23;20036;-74
2022/08/30 04:44:46;;;;;;;6.10;5.70;;;;;;;16.24;96.55;101622.16;6039400;23;20011;-74
2022/08/30 04:47:13;;;;;;;7.03;5.97;;;;;;;16.07;97.16;101604.63;6021344;23;20026;-73
2022/08/30 04:49:39;;;;;;;6.60;6.00;;;;;;;15.79;97.52;101557.81;6055561;23;20022;-74
2022/08/30 04:52:07;;;;;;;9.38;6.78;;;;;;;16.20;98.35;101625.09;6026392;23;20440;-76
2022/08/30 04:54:34;;;;;;;6.10;5.72;;;;;;;16.18;98.52;101638.44;6053125;23;20015;-76
2022/08/30 04:57:03;;;;;;;6.10;5.60;;;;;;;16.02;98.44;101601.44;6030995;23;20034;-76
2022/08/30 04:59:30;;;;;;;6.00;5.60;;;;;;;16.01;98.65;101598.88;6032152;23;20178;-75
2022/08/30 05:01:56;;;;;;;6.65;6.10;;;;;;;15.78;99.46;101571.16;6030897;23;20030;-76
2022/08/30 05:04:23;;;;;;;6.80;6.40;;;;;;;15.68;99.61;101550.50;6051568;23;20022;-76
2022/08/30 05:06:49;;;;;;;5.70;5.40;;;;;;;16.21;99.85;101629.44;6006281;23;20090;-75
2022/08/30 05:09:16;;;;;;;8.50;6.68;;;;;;;16.27;100.00;101627.25;6052518;23;20076;-75
2022/08/30 05:11:43;;;;;;;6.28;5.63;;;;;;;16.31;100.00;101630.56;6011307;23;20018;-75
2022/08/30 05:14:10;;;;;;;6.15;5.75;;;;;;;15.95;100.00;101577.09;6034990;23;20026;-75
2022/08/30 05:16:36;;;;;;;5.88;5.47;;;;;;;16.43;99.92;101631.63;5992727;23;20199;-76
2022/08/30 05:19:04;;;;;;;5.43;5.13;;;;;;;16.17;99.42;101588.19;6038815;23;20026;-76
2022/08/30 05:21:30;;;;;;;6.10;5.70;;;;;;;16.24;98.81;101578.94;6008047;23;20063;-75
2022/08/30 05:23:59;;;;;;;6.05;5.63;;;;;;;16.69;98.01;101638.78;6042479;23;20389;-76
2022/08/30 05:26:31;;;;;;;6.95;6.55;;;;;;;16.48;96.77;101587.16;6003008;23;20102;-76
2022/08/30 05:28:58;;;;;;;5.97;5.57;;;;;;;16.32;96.16;101540.41;6058365;23;20488;-76
2022/08/30 05:31:27;;;;;;;7.18;6.78;;;;;;;16.51;95.62;101560.44;6032689;23;20625;-76
2022/08/30 05:33:55;;;;;;;6.03;5.53;;;;;;;17.02;94.62;101632.31;6051296;23;20014;-76
2022/08/30 05:36:24;;;;;;;7.55;7.05;;;;;;;17.09;94.56;101632.78;6008616;23;20029;-76
2022/08/30 05:38:52;;;;;;;9.93;6.15;;;;;;;17.15;94.01;101627.91;6034754;23;20021;-75
2022/08/30 05:41:20;;;;;;;6.88;6.47;;;;;;;16.60;93.03;101513.94;6011298;23;20047;-76
2022/08/30 05:43:47;;;;;;;6.10;5.65;;;;;;;17.11;92.79;101586.63;6040878;23;20032;-75
2022/08/30 05:46:18;;;;;;;6.57;6.13;;;;;;;17.45;92.27;101632.16;6016853;23;20023;-74
2022/08/30 05:48:45;;;;;;;6.60;6.10;;;;;;;17.55;90.44;101627.94;6034049;23;20034;-75
2022/08/30 05:51:18;;;;;;;6.60;6.07;;;;;;;17.57;90.01;101613.72;6013500;23;20026;-75
2022/08/30 05:53:45;;;;;;;;;;;;;;;17.81;89.66;101622.69;5985405;23;20048;-75
2022/08/30 05:56:14;;;;;;;6.30;5.90;;;;;;;17.89;88.61;101619.53;6044211;23;19902;-75
2022/08/30 05:58:42;;;;;;;6.82;6.28;;;;;;;17.88;88.26;101624.00;5989351;23;20098;-76
2022/08/30 06:01:25;;;;;;;6.10;5.70;;;;;;;18.00;88.31;101617.00;6052928;23;20042;-75
2022/08/30 06:03:52;;;;;;;;;;;;;;;18.01;88.16;101613.38;5999487;23;20429;-75
2022/08/30 06:06:18;;;;;;;7.28;6.70;;;;;;;18.14;88.02;101605.41;6071088;23;19929;-75
2022/08/30 06:08:47;;;;;;;6.97;5.68;;;;;;;17.60;86.86;101508.19;6017752;23;20031;-75
2022/08/30 06:11:16;;;;;;;6.55;6.15;;;;;;;18.06;85.93;101575.88;6070623;23;20487;-74
2022/08/30 06:13:42;;;;;;;6.32;5.93;;;;;;;18.24;85.58;101566.63;6032482;23;20095;-76
2022/08/30 06:16:11;;;;;;;6.30;5.80;;;;;;;18.68;85.23;101610.44;6087397;23;20243;-75
2022/08/30 06:18:39;;;;;;;5.82;5.53;;;;;;;18.84;83.84;101601.38;6036434;23;20023;-75
2022/08/30 06:21:05;;;;;;;8.40;6.20;;;;;;;18.74;81.98;101564.78;6037982;23;20705;-75
2022/08/30 06:23:32;;;;;;;6.30;5.88;;;;;;;18.09;81.59;101456.13;6067901;23;20022;-74
2022/08/30 06:26:06;;;;;;;6.45;5.85;;;;;;;18.66;81.43;101564.50;6038103;23;20025;-75
2022/08/30 06:28:33;;;;;;;5.70;5.40;;;;;;;18.94;82.15;101597.06;6031407;23;20015;-75
2022/08/30 06:30:59;;;;;;;5.70;5.40;;;;;;;18.66;81.28;101540.56;6042781;23;20077;-75
2022/08/30 06:33:26;;;;;;;7.38;6.85;;;;;;;18.76;80.45;101523.94;6067342;23;20045;-75
2022/08/30 06:35:52;;;;;;;8.57;5.95;;;;;;;18.66;79.96;101494.50;6023135;23;20018;-76
2022/08/30 06:38:25;;;;;;;5.53;5.22;;;;;;;19.53;78.76;101594.44;6081747;23;20018;-76
2022/08/30 06:40:52;;;;;;;6.38;5.82;;;;;;;19.66;77.27;101605.00;6025582;23;20083;-75
2022/08/30 06:43:19;;;;;;;6.35;5.80;;;;;;;19.50;76.26;101544.09;6078733;23;20025;-75
2022/08/30 06:45:46;;;;;;;6.30;5.80;;;;;;;19.19;76.86;101499.50;6008794;23;20023;-75
2022/08/30 06:48:12;;;;;;;6.20;5.80;;;;;;;19.56;76.21;101563.22;6051480;23;20034;-75
2022/08/30 06:50:40;;;;;;;6.07;5.78;;;;;;;19.42;75.22;101522.50;6023042;23;20042;-76
2022/08/30 06:53:08;;;;;;;5.45;5.15;;;;;;;20.00;74.54;101586.44;6062938;23;20053;-75
2022/08/30 06:55:36;;;;;;;6.55;6.03;;;;;;;20.02;74.37;101567.69;6027800;23;20018;-76
2022/08/30 06:58:03;;;;;;;6.90;6.20;;;;;;;19.82;73.32;101540.78;6070486;23;20029;-76
2022/08/30 07:00:30;;;;;;;7.47;6.88;;;;;;;20.26;73.92;101604.88;6026118;23;20011;-76
2022/08/30 07:02:56;;;;;;;7.40;5.80;;;;;;;20.08;73.02;101556.53;6084738;23;20023;-76
2022/08/30 07:05:23;;;;;;;5.90;5.60;;;;;;;19.21;72.26;101407.91;6051879;23;20097;-76
2022/08/30 07:07:52;;;;;;;6.13;5.57;;;;;;;20.36;71.58;101595.19;6085736;23;20002;-76
2022/08/30 07:10:20;;;;;;;7.03;6.63;;;;;;;18.70;71.29;101281.47;6038946;23;20047;-77
2022/08/30 07:12:47;;;;;;;11.48;5.85;;;;;;;20.06;70.06;101442.06;6084363;23;20014;-76
2022/08/30 07:15:14;;;;;;;5.80;5.40;;;;;;;20.90;68.74;101553.53;6048689;23;20511;-76
2022/08/30 07:20:26;;;;;;;7.28;6.53;;;;;;;20.54;68.33;101502.19;6040946;23;20033;-76
2022/08/30 07:22:52;;;;;;;5.75;5.45;;;;;;;20.64;67.91;101542.34;6058438;23;20018;-76
2022/08/30 07:25:18;;;;;;;7.65;7.03;;;;;;;20.86;67.61;101579.63;6061666;23;20026;-76
2022/08/30 07:27:45;;;;;;;6.20;5.60;;;;;;;20.59;68.50;101534.72;6071126;23;20025;-76
2022/08/30 07:30:12;;;;;;;5.40;5.10;;;;;;;20.91;68.42;101556.09;6048049;23;20046;-76
2022/08/30 07:32:39;;;;;;;5.57;5.28;;;;;;;21.12;67.80;101576.63;6058868;23;20022;-76
2022/08/30 07:35:06;;;;;;;5.50;5.20;;;;;;;21.16;67.37;101569.22;6037871;23;20050;-77
2022/08/30 07:37:32;;;;;;;6.30;6.00;;;;;;;21.60;67.36;101568.16;6010758;23;20034;-76
2022/08/30 07:39:59;;;;;;;6.15;5.75;;;;;;;21.87;65.07;101580.13;6061799;23;20028;-74
2022/08/30 07:42:25;;;;;;;6.82;6.45;;;;;;;21.97;63.45;101564.16;6016226;23;20023;-75
2022/08/30 07:44:52;;;;;;;5.97;5.68;;;;;;;21.43;63.90;101510.00;6044465;23;20733;-74
2022/08/30 07:47:22;;;;;;;7.03;6.32;;;;;;;21.35;64.02;101477.72;6057386;23;20034;-74
2022/08/30 07:49:48;;;;;;;5.70;5.40;;;;;;;21.79;62.28;101555.91;6014425;23;20038;-75
2022/08/30 07:52:15;;;;;;;7.80;7.40;;;;;;;21.89;62.60;101584.38;6083430;23;20021;-76
2022/08/30 07:54:42;;;;;;;5.60;5.20;;;;;;;21.76;61.48;101530.28;6048625;23;20045;-75
2022/08/30 07:57:08;;;;;;;5.70;5.40;;;;;;;21.82;61.41;101519.06;6083856;23;20030;-75
2022/08/30 07:59:34;;;;;;;6.20;5.70;;;;;;;21.77;62.36;101488.38;6048873;23;20154;-75
2022/08/30 08:02:02;;;;;;;6.20;5.70;;;;;;;22.47;61.95;101578.47;6086348;23;20021;-75
2022/08/30 08:04:28;;;;;;;7.03;6.63;;;;;;;22.19;61.40;101555.97;6047427;23;20628;-74
2022/08/30 08:06:55;;;;;;;6.13;5.57;;;;;;;22.84;60.84;101577.84;6088212;23;20006;-75
2022/08/30 08:09:21;;;;;;;6.70;6.30;;;;;;;20.94;58.95;101265.97;6022578;23;20019;-75
2022/08/30 08:11:48;;;;;;;5.72;5.43;;;;;;;23.19;58.76;101589.03;6050973;23;20412;-75
2022/08/30 08:14:14;;;;;;;6.32;5.97;;;;;;;23.32;57.00;101586.91;6051973;23;20015;-75
2022/08/30 08:16:45;;;;;;;5.70;5.40;;;;;;;23.55;57.73;101578.56;6082019;23;20034;-75
2022/08/30 08:19:12;;;;;;;6.40;6.00;;;;;;;22.77;56.55;101460.78;6057229;23;20037;-75
2022/08/30 08:21:39;;;;;;;6.25;5.88;;;;;;;22.96;56.97;101506.28;6085548;23;20510;-75
2022/08/30 08:24:06;;;;;;;5.90;5.60;;;;;;;23.55;56.38;101579.41;6029017;23;20036;-75
2022/08/30 08:26:37;;;;;;;8.25;6.00;;;;;;;22.87;54.86;101422.34;6028149;23;20029;-75
2022/08/30 08:29:08;;;;;;;6.47;5.85;;;;;;;23.70;55.23;101566.41;6081867;23;20022;-75
2022/08/30 08:31:35;;;;;;;5.72;5.40;;;;;;;23.78;55.05;101571.94;6043322;23;20022;-76
2022/08/30 08:34:04;;;;;;;6.22;5.82;;;;;;;24.04;54.36;101568.59;6057734;23;20030;-75
2022/08/30 08:36:32;;;;;;;6.72;6.40;;;;;;;24.08;54.50;101501.09;6035175;23;20157;-75
2022/08/30 08:38:59;;;;;;;6.30;5.90;;;;;;;24.43;53.60;101561.19;6059274;23;20016;-74
2022/08/30 08:41:34;;;;;;;7.35;6.63;;;;;;;24.48;52.56;101555.41;6049422;23;20397;-75
2022/08/30 08:44:17;;;;;;;6.13;5.72;;;;;;;24.28;52.21;101539.41;6084590;23;20036;-75
2022/08/30 08:47:06;;;;;;;6.30;5.80;;;;;;;24.26;51.97;101557.50;6027302;23;20072;-75
2022/08/30 08:49:34;;;;;;;6.32;5.82;;;;;;;24.12;53.02;101533.00;6067985;23;20022;-75
2022/08/30 08:54:56;;;;;;;5.90;5.60;;;;;;;24.63;51.16;101539.66;6078787;23;20025;-75
2022/08/30 08:57:28;;;;;;;8.73;6.70;;;;;;;24.82;49.55;101527.94;6050315;23;20484;-75
2022/08/30 08:59:54;;;;;;;6.15;5.65;;;;;;;24.52;49.63;101441.44;6077675;23;20037;-75
2022/08/30 09:02:26;;;;;;;7.38;6.97;;;;;;;24.84;48.79;101499.09;6017691;23;21039;-75
2022/08/30 09:04:59;;;;;;;5.93;5.63;;;;;;;25.01;50.03;101551.09;6086714;23;20052;-74
2022/08/30 09:07:31;;;;;;;7.72;7.18;;;;;;;24.27;49.62;101451.84;6053860;23;20665;-75
2022/08/30 09:09:59;;;;;;;5.97;5.68;;;;;;;24.64;49.99;101534.13;6087642;23;20093;-75
2022/08/30 09:12:26;;;;;;;7.30;6.88;;;;;;;24.77;48.68;101554.38;6008801;23;20014;-75
2022/08/30 09:15:01;;;;;;;6.25;5.85;;;;;;;24.24;49.14;101545.22;6013182;23;20031;-75
2022/08/30 09:17:28;;;;;;;6.97;6.57;;;;;;;24.31;49.24;101561.56;6075189;23;20036;-74
2022/08/30 09:19:54;;;;;;;6.65;5.65;;;;;;;24.42;48.84;101561.38;6053320;23;20073;-75
2022/08/30 09:22:37;;;;;;;7.20;6.70;;;;;;;24.72;49.39;101559.34;6081871;23;20097;-75
2022/08/30 09:25:07;;;;;;;5.88;5.57;;;;;;;24.42;47.31;101578.31;6069532;23;20384;-74
2022/08/30 09:27:45;;;;;;;6.63;6.18;;;;;;;24.27;47.07;101493.94;6080468;23;20029;-76
2022/08/30 09:30:19;;;;;;;6.40;5.90;;;;;;;24.83;45.64;101546.56;6036591;23;20018;-75
2022/08/30 09:32:55;;;;;;;6.60;6.20;;;;;;;25.17;45.80;101553.91;6085453;23;20020;-75
2022/08/30 09:35:24;;;;;;;6.63;6.22;;;;;;;25.22;46.54;101553.50;6052203;23;20023;-76
2022/08/30 09:37:55;;;;;;;6.30;5.90;;;;;;;24.99;46.90;101492.16;6028778;23;20023;-75
2022/08/30 09:40:27;;;;;;;6.60;6.20;;;;;;;25.44;47.38;101553.00;6055918;23;20048;-74
2022/08/30 09:43:06;;;;;;;7.00;5.72;;;;;;;25.50;46.72;101547.97;5997843;23;20018;-76
2022/08/30 09:45:37;;;;;;;6.30;5.80;;;;;;;25.52;48.24;101541.47;6048937;23;20021;-74
2022/08/30 09:48:42;;;;;;;6.15;5.75;;;;;;;25.59;47.78;101536.31;6084882;23;20029;-75
2022/08/30 09:51:09;;;;;;;6.78;5.95;;;;;;;25.06;48.16;101544.28;6032841;23;20055;-75
2022/08/30 09:54:25;;;;;;;6.20;5.80;;;;;;;24.95;48.72;101541.81;6017797;23;20025;-75
2022/08/30 09:57:10;;;;;;;5.95;5.65;;;;;;;24.82;49.16;101552.09;6056924;23;20088;-75
2022/08/30 10:00:01;;;;;;;10.85;5.75;;;;;;;24.72;49.50;101551.31;6020398;23;21524;-75
2022/08/30 10:02:55;;;;;;;7.78;7.18;;;;;;;24.91;48.92;101550.34;5971023;23;20027;-75
2022/08/30 10:05:31;;;;;;;7.25;6.75;;;;;;;24.79;47.82;101553.22;6043547;23;20389;-76
2022/08/30 10:08:03;;;;;;;5.95;5.55;;;;;;;24.66;48.54;101552.78;6023677;23;20071;-75
2022/08/30 10:10:58;;;;;;;7.35;6.60;;;;;;;24.64;48.69;101552.94;5993019;23;20008;-75
2022/08/30 10:13:52;;;;;;;7.00;6.43;;;;;;;24.83;48.60;101554.63;6050084;23;20568;-75
2022/08/30 10:16:30;;;;;;;6.97;6.53;;;;;;;24.78;49.19;101556.94;6002502;23;20027;-75
2022/08/30 10:18:59;;;;;;;5.93;5.55;;;;;;;24.73;49.38;101561.91;6057162;23;20349;-74
2022/08/30 10:22:23;;;;;;;7.18;6.68;;;;;;;25.04;48.36;101557.00;5986787;23;20162;-75
2022/08/30 10:24:57;;;;;;;6.18;5.78;;;;;;;25.35;47.18;101551.25;5914215;24;20500;-75
2022/08/30 10:27:51;;;;;;;7.07;6.57;;;;;;;25.02;46.70;101501.78;5935701;24;20031;-75
2022/08/30 10:30:19;;;;;;;6.97;6.57;;;;;;;25.32;46.84;101538.13;6021559;23;20178;-75
2022/08/30 10:33:00;;;;;;;6.25;5.85;;;;;;;25.66;47.13;101550.81;6008721;23;20026;-76
2022/08/30 10:35:35;;;;;;;7.77;7.17;;;;;;;26.02;46.45;101548.00;6053512;23;20046;-75
2022/08/30 10:38:10;;;;;;;6.22;5.88;;;;;;;25.06;46.43;101427.94;5994273;23;20087;-75
2022/08/30 10:43:37;;;;;;;7.13;6.63;;;;;;;25.59;45.91;101504.88;6049931;23;20029;-75
2022/08/30 10:46:23;;;;;;;5.95;5.60;;;;;;;25.64;44.90;101477.53;6019601;23;20567;-75
2022/08/30 10:48:51;;;;;;;6.35;5.80;;;;;;;26.04;45.69;101468.84;6050132;23;20024;-76
2022/08/30 10:51:28;;;;;;;6.75;6.45;;;;;;;26.35;44.86;101532.00;5994610;23;20229;-76
2022/08/30 10:54:00;;;;;;;6.28;5.88;;;;;;;26.33;44.40;101534.84;6022902;23;20078;-76
2022/08/30 10:56:28;;;;;;;7.55;6.95;;;;;;;26.05;45.51;101480.44;6050202;23;20030;-76
2022/08/30 10:58:57;;;;;;;6.32;5.93;;;;;;;26.39;45.45;101519.91;6030570;23;20041;-75
2022/08/30 11:01:45;;;;;;;7.50;7.03;;;;;;;26.48;45.22;101521.63;6060804;23;20043;-76
2022/08/30 11:04:16;;;;;;;6.75;6.18;;;;;;;26.65;46.17;101536.81;5999060;23;20037;-75
2022/08/30 11:06:46;;;;;;;5.80;5.50;;;;;;;26.43;45.41;101535.53;6062323;23;20033;-76
2022/08/30 11:09:36;;;;;;;6.70;6.10;;;;;;;24.66;46.25;101340.75;6028084;23;20081;-75
2022/08/30 11:12:27;;;;;;;6.13;5.72;;;;;;;26.24;45.76;101544.75;6081674;23;20044;-76
2022/08/30 11:14:54;;;;;;;5.90;5.60;;;;;;;25.73;46.20;101484.63;6034247;23;20023;-75
2022/08/30 11:17:37;;;;;;;7.47;6.97;;;;;;;26.01;47.18;101546.31;6043070;23;20026;-75
2022/08/30 11:20:04;;;;;;;;;;;;;;;26.60;46.07;101538.31;6056271;23;20042;-75
2022/08/30 11:22:36;;;;;;;7.35;6.75;;;;;;;26.06;45.91;101503.66;6075311;23;20379;-75
2022/08/30 11:25:15;;;;;;;6.32;5.93;;;;;;;26.74;44.67;101553.84;6037767;23;20089;-75
2022/08/30 11:27:55;;;;;;;12.15;6.70;;;;;;;26.13;45.79;101523.50;6055167;23;20010;-75
2022/08/30 11:30:25;;;;;;;7.32;6.93;;;;;;;26.46;45.23;101546.00;6048499;23;20026;-75
2022/08/30 11:32:58;;;;;;;6.47;6.07;;;;;;;26.75;44.87;101527.75;6070191;23;20448;-76
2022/08/30 11:35:35;;;;;;;7.22;6.82;;;;;;;26.96;44.77;101533.50;6011838;23;20065;-75
2022/08/30 11:38:15;;;;;;;7.38;5.90;;;;;;;26.88;44.20;101528.06;5997347;23;20007;-75
2022/08/30 11:40:55;;;;;;;6.68;6.10;;;;;;;26.95;44.12;101539.88;6051758;23;20796;-75
2022/08/30 11:43:34;;;;;;;7.90;7.40;;;;;;;26.80;44.77;101539.72;6079582;23;20021;-75
2022/08/30 11:46:27;;;;;;;6.00;5.70;;;;;;;26.65;45.03;101546.75;6024464;23;20017;-75
2022/08/30 11:49:12;;;;;;;6.22;5.75;;;;;;;26.50;45.23;101541.13;6064813;23;20022;-75
2022/08/30 11:52:03;;;;;;;6.20;5.80;;;;;;;26.53;46.01;101543.47;6046470;23;20488;-76